createdAt,value
2019-03-24T00:01:01.103Z,45.73
2019-03-24T00:03:31.258Z,46.77
2019-03-24T00:06:01.474Z,46.47
2019-03-24T00:08:31.610Z,43.03
2019-03-24T00:11:01.769Z,42.03
2019-03-24T00:13:31.869Z,47.20
2019-03-24T00:16:02.037Z,49.73
2019-03-24T00:18:32.187Z,46.47
2019-03-24T00:21:02.477Z,46.67
2019-03-24T00:23:32.571Z,46.87
2019-03-24T00:26:02.693Z,44.17
2019-03-24T00:28:32.797Z,48.97
2019-03-24T00:31:02.937Z,45.73
2019-03-24T00:33:33.075Z,47.87
2019-03-24T00:36:03.254Z,44.77
2019-03-24T00:38:33.333Z,46.63
2019-03-24T00:41:03.407Z,45.43
2019-03-24T00:43:33.537Z,45.17
2019-03-24T00:46:03.681Z,46.73
2019-03-24T00:48:39.797Z,47.03
2019-03-24T00:51:10.032Z,47.20
2019-03-24T00:53:40.149Z,45.23
2019-03-24T00:56:10.316Z,47.97
2019-03-24T00:58:40.455Z,48.60
2019-03-24T01:01:10.570Z,47.50
2019-03-24T01:03:45.779Z,47.93
2019-03-24T01:06:34.695Z,48.50
2019-03-24T01:09:06.975Z,50.27
2019-03-24T01:11:37.482Z,49.33
2019-03-24T01:14:07.744Z,48.50
2019-03-24T01:16:37.958Z,49.27
2019-03-24T01:19:08.412Z,50.13
2019-03-24T01:21:38.513Z,48.40
2019-03-24T01:24:08.657Z,51.70
2019-03-24T01:26:38.771Z,45.80
2019-03-24T01:29:08.943Z,51.00
2019-03-24T01:31:39.071Z,47.60
2019-03-24T01:34:09.199Z,50.80
2019-03-24T01:36:39.339Z,48.67
2019-03-24T01:39:09.455Z,49.47
2019-03-24T01:41:39.576Z,45.10
2019-03-24T01:44:09.667Z,47.40
2019-03-24T01:46:39.776Z,50.37
2019-03-24T01:49:09.931Z,48.93
2019-03-24T01:51:40.035Z,53.77
2019-03-24T01:54:10.137Z,49.67
2019-03-24T01:56:40.293Z,49.67
2019-03-24T01:59:10.435Z,55.00
2019-03-24T02:01:40.560Z,47.40
2019-03-24T02:04:10.671Z,49.03
2019-03-24T02:06:40.778Z,51.70
2019-03-24T02:09:11.173Z,48.27
2019-03-24T02:11:41.328Z,50.13
2019-03-24T02:14:11.438Z,52.70
2019-03-24T02:16:41.714Z,46.23
2019-03-24T02:19:11.875Z,48.50
2019-03-24T02:21:42.056Z,50.77
2019-03-24T02:24:12.164Z,50.20
2019-03-24T02:26:42.277Z,48.17
2019-03-24T02:29:12.457Z,49.43
2019-03-24T02:31:42.620Z,49.97
2019-03-24T02:34:12.752Z,48.40
2019-03-24T02:36:42.897Z,51.00
2019-03-24T02:39:13.090Z,50.10
2019-03-24T02:41:43.176Z,49.90
2019-03-24T02:44:13.331Z,48.87
2019-03-24T02:46:43.439Z,51.40
2019-03-24T02:49:13.545Z,49.13
2019-03-24T02:51:43.656Z,53.53
2019-03-24T02:54:13.852Z,48.23
2019-03-24T02:56:43.987Z,52.37
2019-03-24T02:59:14.325Z,55.77
2019-03-24T03:01:44.464Z,50.60
2019-03-24T03:04:14.570Z,50.77
2019-03-24T03:06:44.733Z,45.17
2019-03-24T03:09:14.960Z,49.27
2019-03-24T03:11:45.124Z,47.73
2019-03-24T03:14:15.251Z,46.37
2019-03-24T03:16:45.401Z,49.43
2019-03-24T03:19:15.513Z,47.77
2019-03-24T03:21:45.717Z,44.33
2019-03-24T03:24:15.825Z,47.50
2019-03-24T03:26:45.945Z,43.40
2019-03-24T03:29:16.095Z,44.20
2019-03-24T03:31:46.252Z,45.87
2019-03-24T03:34:16.430Z,48.00
2019-03-24T03:36:46.705Z,50.43
2019-03-24T03:39:17.099Z,48.87
2019-03-24T03:41:47.163Z,48.40
2019-03-24T03:44:17.336Z,48.90
2019-03-24T03:46:52.999Z,47.73
2019-03-24T03:49:19.275Z,47.80
2019-03-24T03:51:49.372Z,44.50
2019-03-24T03:54:19.504Z,51.23
2019-03-24T03:56:49.639Z,49.27
2019-03-24T03:59:19.693Z,50.17
2019-03-24T04:01:49.766Z,51.03
2019-03-24T04:04:19.877Z,53.53
2019-03-24T04:06:50.009Z,53.90
2019-03-24T04:09:20.153Z,50.50
2019-03-24T04:11:50.289Z,50.83
2019-03-24T04:14:20.392Z,52.83
2019-03-24T04:16:50.514Z,53.13
2019-03-24T04:19:20.658Z,56.73
2019-03-24T04:21:50.813Z,54.93
2019-03-24T04:24:20.925Z,53.47
2019-03-24T04:26:51.071Z,51.73
2019-03-24T04:29:21.208Z,50.83
2019-03-24T04:31:51.355Z,51.33
2019-03-24T04:34:21.474Z,54.23
2019-03-24T04:36:51.591Z,52.17
2019-03-24T04:39:21.725Z,53.00
2019-03-24T04:41:51.831Z,52.33
2019-03-24T04:44:40.691Z,52.60
2019-03-24T04:47:16.499Z,51.50
2019-03-24T04:49:42.645Z,52.90
2019-03-24T04:52:12.757Z,50.07
2019-03-24T04:54:42.979Z,51.23
2019-03-24T04:57:13.081Z,55.67
2019-03-24T04:59:43.222Z,51.73
2019-03-24T05:02:13.353Z,54.13
2019-03-24T05:04:43.483Z,49.77
2019-03-24T05:07:14.405Z,46.80
2019-03-24T05:09:44.735Z,50.33
2019-03-24T05:12:14.855Z,44.87
2019-03-24T05:14:45.040Z,45.67
2019-03-24T05:17:15.127Z,46.10
2019-03-24T05:19:45.241Z,44.53
2019-03-24T05:22:15.395Z,42.53
2019-03-24T05:24:45.544Z,46.53
2019-03-24T05:27:15.647Z,41.60
2019-03-24T05:29:45.762Z,47.17
2019-03-24T05:32:15.876Z,42.93
2019-03-24T05:34:46.110Z,42.77
2019-03-24T05:37:16.224Z,47.80
2019-03-24T05:39:46.433Z,42.73
2019-03-24T05:42:16.548Z,42.73
2019-03-24T05:44:46.734Z,44.03
2019-03-24T05:47:16.848Z,46.17
2019-03-24T05:49:47.064Z,44.00
2019-03-24T05:52:17.290Z,45.70
2019-03-24T05:54:47.535Z,41.93
2019-03-24T05:57:17.758Z,42.67
2019-03-24T06:00:07.016Z,44.83
2019-03-24T06:02:37.302Z,42.90
2019-03-24T06:05:07.960Z,40.80
2019-03-24T06:07:38.308Z,40.10
2019-03-24T06:10:08.866Z,42.77
2019-03-24T06:12:39.140Z,41.77
2019-03-24T06:15:09.570Z,37.70
2019-03-24T06:17:47.688Z,38.47
2019-03-24T06:20:12.554Z,38.00
2019-03-24T06:22:42.716Z,38.93
2019-03-24T06:25:13.127Z,41.33
2019-03-24T06:27:43.232Z,38.67
2019-03-24T06:30:13.540Z,37.13
2019-03-24T06:32:44.019Z,34.73
2019-03-24T06:35:14.325Z,37.23
2019-03-24T06:37:44.442Z,37.33
2019-03-24T06:40:15.072Z,36.07
2019-03-24T06:42:45.603Z,36.57
2019-03-24T06:45:15.985Z,42.20
2019-03-24T06:47:46.553Z,35.70
2019-03-24T06:50:16.613Z,37.77
2019-03-24T06:52:46.783Z,39.60
2019-03-24T06:55:17.006Z,41.57
2019-03-24T06:57:47.577Z,37.23
2019-03-24T07:00:17.953Z,38.33
2019-03-24T07:02:48.205Z,37.00
2019-03-24T07:05:18.336Z,36.47
2019-03-24T07:07:48.467Z,34.70
2019-03-24T07:10:18.591Z,38.10
2019-03-24T07:12:48.733Z,37.50
2019-03-24T07:15:18.897Z,36.27
2019-03-24T07:17:49.052Z,38.43
2019-03-24T07:20:19.189Z,37.27
2019-03-24T07:22:49.321Z,34.47
2019-03-24T07:25:19.476Z,38.13
2019-03-24T07:27:49.630Z,34.77
2019-03-24T07:30:20.139Z,32.87
2019-03-24T07:32:50.587Z,30.97
2019-03-24T07:35:20.811Z,34.70
2019-03-24T07:37:51.169Z,32.20
2019-03-24T07:40:21.331Z,31.93
2019-03-24T07:42:51.431Z,32.17
2019-03-24T07:45:21.673Z,32.40
2019-03-24T07:47:52.297Z,31.13
2019-03-24T07:50:22.629Z,30.67
2019-03-24T07:52:52.833Z,30.30
2019-03-24T07:55:22.979Z,26.80
2019-03-24T07:57:53.339Z,30.40
2019-03-24T08:00:42.199Z,28.90
2019-03-24T08:03:12.576Z,27.87
2019-03-24T08:05:42.673Z,28.90
2019-03-24T08:08:13.046Z,27.40
2019-03-24T08:10:43.322Z,27.73
2019-03-24T08:13:13.766Z,24.53
2019-03-24T08:15:44.172Z,27.87
2019-03-24T08:18:14.448Z,24.80
2019-03-24T08:20:44.860Z,25.30
2019-03-24T08:23:15.090Z,25.60
2019-03-24T08:25:45.323Z,27.13
2019-03-24T08:28:15.596Z,27.17
2019-03-24T08:30:45.966Z,25.50
2019-03-24T08:33:16.392Z,26.27
2019-03-24T08:35:46.611Z,27.93
2019-03-24T08:38:17.046Z,25.83
2019-03-24T08:40:47.372Z,30.20
2019-03-24T08:43:17.726Z,25.93
2019-03-24T08:45:47.912Z,27.10
2019-03-24T08:48:18.198Z,28.13
2019-03-24T08:50:48.358Z,28.23
2019-03-24T08:53:18.486Z,28.20
2019-03-24T08:55:48.804Z,28.33
2019-03-24T08:58:19.123Z,26.63
2019-03-24T09:00:49.315Z,25.87
2019-03-24T09:03:19.498Z,31.87
2019-03-24T09:05:49.925Z,30.40
2019-03-24T09:08:20.196Z,34.27
2019-03-24T09:10:50.392Z,31.40
2019-03-24T09:13:20.749Z,31.23
2019-03-24T09:15:51.114Z,32.37
2019-03-24T09:18:21.328Z,34.03
2019-03-24T09:20:51.459Z,32.73
2019-03-24T09:23:21.621Z,35.27
2019-03-24T09:25:51.790Z,31.50
2019-03-24T09:28:22.217Z,32.57
2019-03-24T09:30:54.653Z,30.03
2019-03-24T09:33:25.004Z,35.03
2019-03-24T09:35:55.503Z,31.43
2019-03-24T09:38:25.770Z,31.97
2019-03-24T09:40:55.979Z,31.40
2019-03-24T09:43:26.142Z,32.17
2019-03-24T09:45:56.596Z,33.30
2019-03-24T09:48:27.106Z,31.27
2019-03-24T09:50:57.377Z,31.10
2019-03-24T09:53:27.516Z,32.63
2019-03-24T09:55:57.956Z,31.50
2019-03-24T09:58:28.203Z,32.93
2019-03-24T10:00:58.506Z,29.87
2019-03-24T10:03:28.968Z,28.77
2019-03-24T10:05:59.318Z,30.30
2019-03-24T10:08:29.719Z,30.73
2019-03-24T10:11:00.054Z,29.90
2019-03-24T10:13:30.169Z,31.57
2019-03-24T10:16:00.531Z,30.07
2019-03-24T10:18:30.993Z,29.93
2019-03-24T10:21:01.362Z,33.97
2019-03-24T10:23:31.589Z,28.20
2019-03-24T10:26:01.959Z,30.67
2019-03-24T10:28:35.089Z,29.80
2019-03-24T10:31:05.455Z,32.93
2019-03-24T10:33:35.773Z,32.37
2019-03-24T10:36:06.146Z,30.80
2019-03-24T10:38:36.241Z,30.77
2019-03-24T10:41:08.455Z,33.47
2019-03-24T10:43:38.641Z,35.43
2019-03-24T10:46:08.767Z,37.33
2019-03-24T10:48:38.899Z,38.63
2019-03-24T10:51:09.066Z,39.80
2019-03-24T10:53:39.243Z,37.17
2019-03-24T10:56:09.385Z,36.97
2019-03-24T10:58:39.543Z,37.97
2019-03-24T11:01:09.731Z,37.50
2019-03-24T11:03:39.877Z,39.77
2019-03-24T11:06:10.017Z,40.13
2019-03-24T11:08:40.091Z,39.97
2019-03-24T11:11:10.222Z,36.87
2019-03-24T11:13:40.343Z,42.87
2019-03-24T11:16:10.537Z,46.40
2019-03-24T11:18:40.715Z,43.20
2019-03-24T11:21:10.849Z,44.60
2019-03-24T11:23:41.000Z,46.60
2019-03-24T11:26:11.146Z,46.00
2019-03-24T11:28:41.246Z,44.63
2019-03-24T11:31:11.365Z,43.27
2019-03-24T11:33:41.504Z,52.70
2019-03-24T11:36:11.630Z,46.77
2019-03-24T11:38:41.796Z,43.00
2019-03-24T11:41:12.157Z,47.43
2019-03-24T11:43:42.278Z,52.13
2019-03-24T11:46:12.661Z,55.90
2019-03-24T11:48:43.086Z,55.53
2019-03-24T11:51:13.609Z,58.23
2019-03-24T11:53:43.728Z,58.17
2019-03-24T11:56:13.933Z,52.73
2019-03-24T11:58:44.354Z,53.67
2019-03-24T12:01:14.975Z,57.17
2019-03-24T12:03:45.168Z,54.27
2019-03-24T12:06:15.348Z,50.77
2019-03-24T12:08:45.514Z,52.57
2019-03-24T12:11:16.087Z,52.57
2019-03-24T12:13:46.229Z,51.33
2019-03-24T12:16:16.383Z,50.33
2019-03-24T12:18:46.932Z,50.50
2019-03-24T12:21:17.080Z,49.97
2019-03-24T12:23:47.311Z,49.93
2019-03-24T12:26:17.467Z,45.47
2019-03-24T12:28:47.572Z,53.37
2019-03-24T12:31:17.741Z,44.13
2019-03-24T12:33:47.881Z,43.33
2019-03-24T12:36:18.038Z,46.77
2019-03-24T12:38:48.202Z,43.87
2019-03-24T12:41:18.342Z,45.10
2019-03-24T12:43:48.468Z,46.40
2019-03-24T12:46:18.754Z,45.37
2019-03-24T12:48:48.854Z,49.97
2019-03-24T12:51:19.102Z,48.23
2019-03-24T12:53:49.467Z,44.73
2019-03-24T12:56:19.582Z,41.53
2019-03-24T12:58:49.745Z,43.23
2019-03-24T13:01:19.823Z,45.33
2019-03-24T13:03:49.950Z,43.13
2019-03-24T13:06:20.076Z,43.43
2019-03-24T13:08:50.252Z,42.33
2019-03-24T13:11:20.369Z,43.67
2019-03-24T13:13:50.509Z,41.90
2019-03-24T13:16:20.674Z,41.10
2019-03-24T13:18:50.872Z,42.50
2019-03-24T13:21:21.166Z,37.43
2019-03-24T13:23:51.519Z,40.10
2019-03-24T13:26:21.615Z,37.43
2019-03-24T13:28:51.791Z,42.27
2019-03-24T13:31:40.704Z,45.20
2019-03-24T13:34:11.155Z,40.33
2019-03-24T13:36:41.488Z,41.27
2019-03-24T13:39:11.811Z,41.67
2019-03-24T13:41:42.250Z,44.40
2019-03-24T13:44:12.533Z,40.17
2019-03-24T13:46:42.687Z,42.97
2019-03-24T13:49:12.837Z,43.73
2019-03-24T13:52:01.679Z,38.63
2019-03-24T13:54:31.854Z,46.87
2019-03-24T13:57:01.993Z,44.67
2019-03-24T13:59:32.172Z,43.10
2019-03-24T14:02:02.341Z,40.30
2019-03-24T14:04:32.739Z,41.77
2019-03-24T14:07:02.869Z,41.37
2019-03-24T14:09:32.987Z,44.37
2019-03-24T14:12:03.125Z,44.90
2019-03-24T14:14:33.259Z,46.07
2019-03-24T14:17:03.584Z,46.30
2019-03-24T14:19:34.503Z,45.83
2019-03-24T14:22:04.969Z,39.77
2019-03-24T14:24:35.264Z,40.63
2019-03-24T14:27:05.443Z,46.97
2019-03-24T14:29:35.616Z,46.97
2019-03-24T14:32:05.725Z,51.10
2019-03-24T14:34:35.967Z,45.53
2019-03-24T14:37:06.489Z,44.03
2019-03-24T14:39:36.735Z,43.87
2019-03-24T14:42:07.131Z,43.07
2019-03-24T14:44:37.565Z,40.80
2019-03-24T14:47:07.967Z,45.70
2019-03-24T14:49:38.309Z,45.23
2019-03-24T14:52:08.977Z,45.87
2019-03-24T14:54:39.396Z,41.70
2019-03-24T14:57:09.683Z,43.90
2019-03-24T14:59:40.019Z,51.80
2019-03-24T15:02:10.238Z,49.00
2019-03-24T15:04:40.692Z,41.03
2019-03-24T15:07:11.193Z,37.63
2019-03-24T15:09:41.422Z,40.93
2019-03-24T15:12:11.603Z,40.07
2019-03-24T15:14:41.991Z,38.83
2019-03-24T15:17:12.455Z,36.53
2019-03-24T15:19:42.705Z,38.93
2019-03-24T15:22:13.248Z,39.17
2019-03-24T15:24:43.673Z,36.33
2019-03-24T15:27:14.012Z,39.40
2019-03-24T15:29:44.301Z,38.97
2019-03-24T15:32:14.432Z,35.80
2019-03-24T15:34:44.741Z,35.87
2019-03-24T15:37:15.062Z,36.60
2019-03-24T15:39:45.426Z,37.93
2019-03-24T15:42:25.359Z,35.40
2019-03-24T15:44:55.664Z,35.93
2019-03-24T15:47:26.002Z,37.63
2019-03-24T15:49:58.429Z,37.40
2019-03-24T15:52:33.523Z,40.40
2019-03-24T15:55:04.074Z,37.73
2019-03-24T15:57:34.440Z,40.53
2019-03-24T16:00:06.235Z,40.20
2019-03-24T16:02:36.571Z,41.20
2019-03-24T16:05:07.031Z,35.40
2019-03-24T16:07:37.287Z,38.77
2019-03-24T16:10:07.534Z,32.67
2019-03-24T16:12:37.960Z,37.67
2019-03-24T16:15:08.738Z,36.37
2019-03-24T16:17:38.992Z,36.67
2019-03-24T16:20:09.585Z,35.37
2019-03-24T16:22:40.720Z,33.43
2019-03-24T16:25:11.064Z,33.50
2019-03-24T16:27:41.617Z,35.30
2019-03-24T16:30:12.292Z,34.13
2019-03-24T16:32:42.626Z,35.33
2019-03-24T16:35:12.838Z,34.87
2019-03-24T16:37:43.484Z,38.37
2019-03-24T16:40:14.457Z,37.10
2019-03-24T16:42:44.636Z,35.13
2019-03-24T16:45:15.145Z,34.63
2019-03-24T16:47:45.532Z,32.93
2019-03-24T16:50:15.881Z,33.37
2019-03-24T16:52:46.123Z,44.93
2019-03-24T16:55:16.465Z,79.60
2019-03-24T16:57:46.996Z,152.30
2019-03-24T17:00:17.590Z,52.10
2019-03-24T17:02:47.736Z,42.43
2019-03-24T17:05:18.084Z,39.53
2019-03-24T17:08:07.040Z,34.87
2019-03-24T17:10:37.288Z,34.20
2019-03-24T17:13:07.701Z,34.37
2019-03-24T17:15:37.998Z,35.30
2019-03-24T17:18:08.244Z,34.87
2019-03-24T17:20:38.621Z,36.93
2019-03-24T17:23:08.954Z,34.57
2019-03-24T17:25:39.111Z,36.10
2019-03-24T17:28:09.513Z,37.27
2019-03-24T17:30:39.749Z,31.77
2019-03-24T17:33:10.068Z,32.60
2019-03-24T17:35:40.320Z,28.37
2019-03-24T17:38:10.573Z,36.83
2019-03-24T17:40:40.972Z,27.07
2019-03-24T17:43:11.337Z,25.13
2019-03-24T17:45:41.695Z,25.67
2019-03-24T17:48:12.030Z,26.40
2019-03-24T17:50:42.294Z,26.33
2019-03-24T17:53:12.651Z,26.17
2019-03-24T17:55:42.829Z,27.90
2019-03-24T17:58:20.463Z,22.93
2019-03-24T18:00:53.410Z,28.00
2019-03-24T18:03:23.545Z,26.53
2019-03-24T18:05:53.728Z,26.17
2019-03-24T18:08:23.851Z,28.33
2019-03-24T18:10:53.933Z,23.10
2019-03-24T18:13:24.061Z,29.03
2019-03-24T18:15:54.223Z,26.13
2019-03-24T18:18:24.335Z,26.70
2019-03-24T18:20:54.539Z,26.17
2019-03-24T18:23:24.770Z,28.23
2019-03-24T18:25:54.937Z,25.00
2019-03-24T18:28:25.120Z,25.70
2019-03-24T18:30:55.253Z,27.83
2019-03-24T18:33:25.451Z,27.77
2019-03-24T18:35:55.811Z,41.13
2019-03-24T18:38:27.575Z,38.20
2019-03-24T18:40:57.691Z,42.10
2019-03-24T18:43:28.306Z,37.80
2019-03-24T18:45:58.602Z,39.17
2019-03-24T18:48:29.327Z,30.43
2019-03-24T18:51:07.163Z,31.10
2019-03-24T18:53:37.334Z,26.57
2019-03-24T18:56:07.510Z,25.17
2019-03-24T18:58:37.749Z,33.17
2019-03-24T19:01:08.254Z,32.10
2019-03-24T19:03:38.507Z,47.17
2019-03-24T19:06:08.735Z,64.13
2019-03-24T19:08:39.211Z,37.77
2019-03-24T19:11:09.602Z,33.13
2019-03-24T19:13:40.044Z,27.50
2019-03-24T19:16:10.388Z,26.53
2019-03-24T19:18:40.718Z,26.43
2019-03-24T19:21:10.962Z,28.83
2019-03-24T19:23:41.469Z,26.47
2019-03-24T19:26:12.038Z,26.90
2019-03-24T19:28:42.633Z,28.10
2019-03-24T19:31:13.220Z,28.17
2019-03-24T19:33:43.893Z,28.33
2019-03-24T19:36:14.545Z,37.57
2019-03-24T19:38:45.215Z,39.73
2019-03-24T19:41:15.697Z,43.37
2019-03-24T19:43:46.016Z,46.47
2019-03-24T19:46:16.480Z,46.50
2019-03-24T19:48:46.804Z,45.67
2019-03-24T19:51:17.093Z,46.97
2019-03-24T19:53:47.637Z,49.67
2019-03-24T19:56:18.160Z,46.23
2019-03-24T19:58:48.561Z,47.03
2019-03-24T20:01:18.943Z,47.87
2019-03-24T20:03:49.575Z,43.53
2019-03-24T20:06:20.093Z,51.60
2019-03-24T20:08:51.014Z,56.13
2019-03-24T20:11:21.546Z,58.20
2019-03-24T20:13:52.072Z,55.90
2019-03-24T20:16:22.435Z,51.87
2019-03-24T20:19:11.296Z,51.43
2019-03-24T20:21:41.722Z,54.07
2019-03-24T20:24:12.149Z,55.53
2019-03-24T20:26:42.660Z,61.10
2019-03-24T20:29:13.107Z,59.63
2019-03-24T20:31:43.610Z,53.33
2019-03-24T20:34:14.165Z,56.20
2019-03-24T20:36:44.680Z,50.77
2019-03-24T20:39:15.207Z,48.80
2019-03-24T20:41:45.688Z,54.47
2019-03-24T20:44:16.179Z,57.27
2019-03-24T20:47:05.022Z,57.17
2019-03-24T20:49:35.443Z,55.20
2019-03-24T20:52:05.587Z,50.80
2019-03-24T20:54:35.625Z,53.50
2019-03-24T20:57:05.897Z,54.27
2019-03-24T20:59:36.213Z,51.63
2019-03-24T21:02:06.443Z,54.93
2019-03-24T21:04:38.435Z,57.90
2019-03-24T21:07:08.639Z,54.97
2019-03-24T21:09:38.949Z,53.87
2019-03-24T21:12:11.501Z,54.83
2019-03-24T21:14:41.853Z,57.70
2019-03-24T21:17:12.159Z,64.47
2019-03-24T21:19:42.476Z,67.03
2019-03-24T21:22:12.631Z,62.37
2019-03-24T21:24:42.765Z,62.17
2019-03-24T21:27:12.974Z,61.37
2019-03-24T21:29:43.167Z,63.23
2019-03-24T21:32:13.285Z,65.77
2019-03-24T21:34:43.387Z,61.80
2019-03-24T21:37:13.537Z,63.07
2019-03-24T21:39:43.673Z,59.63
2019-03-24T21:42:13.812Z,61.10
2019-03-24T21:44:43.943Z,59.70
2019-03-24T21:47:14.050Z,60.53
2019-03-24T21:49:44.342Z,66.40
2019-03-24T21:52:14.529Z,67.47
2019-03-24T21:54:44.676Z,65.30
2019-03-24T21:57:14.831Z,63.70
2019-03-24T21:59:44.977Z,64.67
2019-03-24T22:02:15.179Z,66.63
2019-03-24T22:04:45.375Z,66.13
2019-03-24T22:07:15.543Z,69.87
2019-03-24T22:09:45.677Z,68.17
2019-03-24T22:12:15.833Z,66.33
2019-03-24T22:14:45.991Z,70.17
2019-03-24T22:17:16.123Z,73.97
2019-03-24T22:19:46.246Z,68.53
2019-03-24T22:22:16.434Z,70.60
2019-03-24T22:24:46.559Z,75.17
2019-03-24T22:27:16.694Z,70.50
2019-03-24T22:29:46.852Z,69.33
2019-03-24T22:32:17.005Z,69.73
2019-03-24T22:34:47.118Z,71.17
2019-03-24T22:37:17.235Z,68.97
2019-03-24T22:39:47.371Z,70.90
2019-03-24T22:42:17.482Z,70.50
2019-03-24T22:44:47.648Z,68.60
2019-03-24T22:47:17.766Z,74.20
2019-03-24T22:49:47.960Z,70.90
2019-03-24T22:52:18.107Z,68.57
2019-03-24T22:54:48.258Z,75.80
2019-03-24T22:57:18.397Z,71.80
2019-03-24T22:59:48.635Z,73.00
2019-03-24T23:02:18.722Z,75.33
2019-03-24T23:04:48.845Z,71.13
2019-03-24T23:07:18.999Z,72.50
2019-03-24T23:09:49.100Z,76.87
2019-03-24T23:12:19.246Z,81.10
2019-03-24T23:14:49.384Z,74.73
2019-03-24T23:17:19.514Z,74.80
2019-03-24T23:19:49.612Z,73.20
2019-03-24T23:22:19.764Z,70.60
2019-03-24T23:24:49.859Z,73.33
2019-03-24T23:27:20.036Z,72.13
2019-03-24T23:29:50.154Z,74.20
2019-03-24T23:32:20.314Z,72.87
2019-03-24T23:34:50.459Z,70.90
2019-03-24T23:37:20.609Z,75.43
2019-03-24T23:39:50.656Z,69.87
2019-03-24T23:42:20.956Z,70.47
2019-03-24T23:44:51.064Z,65.00
2019-03-24T23:47:21.212Z,69.87
2019-03-24T23:49:51.356Z,72.00
2019-03-24T23:52:21.474Z,71.27
2019-03-24T23:54:51.619Z,72.60
2019-03-24T23:57:21.716Z,68.00
2019-03-24T23:59:51.892Z,69.30
